Time;durP1;ratioP1;P1;durP2;ratioP2;P2;SDS_P1;SDS_P2;PMS_P1;PMS_P2;Temp;Humidity;BMP_temperature;BMP_pressure;BME280_temperature;BME280_humidity;BME280_pressure;Samples;Min_cycle;Max_cycle;Signal;HPM_P1;HPM_P2
2023/10/25 00:01:13;;;;;;;9.03;5.20;;;;;;;9.05;100.00;101387.84;5003934;28;20208;-73
2023/10/25 00:03:39;;;;;;;10.00;6.20;;;;;;;9.09;100.00;101396.34;5001431;28;20201;-73
2023/10/25 00:06:05;;;;;;;13.13;6.43;;;;;;;9.27;100.00;101412.97;4997154;28;20545;-73
2023/10/25 00:08:31;;;;;;;9.30;5.70;;;;;;;9.35;100.00;101449.56;4996942;28;20460;-72
2023/10/25 00:11:02;;;;;;;12.53;6.60;;;;;;;9.44;100.00;101445.00;4993742;28;20820;-73
2023/10/25 00:13:28;;;;;;;11.70;6.27;;;;;;;9.46;100.00;101441.16;4996839;28;20189;-72
2023/10/25 00:15:53;;;;;;;15.43;7.10;;;;;;;8.92;100.00;101368.84;4996872;28;20447;-74
2023/10/25 00:18:18;;;;;;;12.30;7.37;;;;;;;9.32;100.00;101436.53;4987913;28;20201;-74
2023/10/25 00:20:44;;;;;;;15.67;7.40;;;;;;;8.34;100.00;101288.00;4991690;28;20638;-73
2023/10/25 00:23:09;;;;;;;10.37;7.00;;;;;;;9.31;100.00;101439.38;4995807;28;20181;-74
2023/10/25 00:25:35;;;;;;;15.23;7.43;;;;;;;8.74;100.00;101374.44;4993348;28;20193;-73
2023/10/25 00:28:00;;;;;;;9.70;6.17;;;;;;;9.01;100.00;101399.06;4993232;28;20201;-72
2023/10/25 00:30:25;;;;;;;13.97;7.00;;;;;;;9.07;100.00;101416.25;4995008;28;20205;-73
2023/10/25 00:32:51;;;;;;;9.27;5.87;;;;;;;8.73;100.00;101356.69;4995134;28;20264;-73
2023/10/25 00:35:16;;;;;;;10.90;5.67;;;;;;;9.17;100.00;101438.28;4997677;28;20177;-74
2023/10/25 00:37:41;;;;;;;10.60;6.00;;;;;;;8.70;100.00;101370.44;4999747;28;20189;-72
2023/10/25 00:40:07;;;;;;;11.13;7.10;;;;;;;9.10;100.00;101446.16;4993625;28;20864;-73
2023/10/25 00:42:33;;;;;;;9.10;5.77;;;;;;;8.97;100.00;101419.97;4996855;28;20181;-72
2023/10/25 00:44:58;;;;;;;12.03;6.77;;;;;;;8.96;100.00;101429.00;4996137;28;20578;-73
2023/10/25 00:47:24;;;;;;;9.57;5.50;;;;;;;9.16;100.00;101442.78;4993400;28;20272;-73
2023/10/25 00:49:51;;;;;;;15.37;6.30;;;;;;;9.04;100.00;101420.13;4995138;28;20193;-73
2023/10/25 00:52:17;;;;;;;11.43;6.40;;;;;;;9.09;100.00;101444.50;4996442;28;20199;-72
2023/10/25 00:54:43;;;;;;;9.30;5.27;;;;;;;8.38;100.00;101326.75;4997720;28;20425;-72
2023/10/25 00:57:09;;;;;;;10.80;6.47;;;;;;;8.32;100.00;101323.91;5002751;28;20519;-73
2023/10/25 00:59:35;;;;;;;9.53;5.90;;;;;;;8.83;100.00;101410.00;4998191;28;20887;-73
2023/10/25 01:02:02;;;;;;;9.97;5.90;;;;;;;8.45;100.00;101353.66;5004980;28;20973;-73
2023/10/25 01:04:29;;;;;;;9.23;5.87;;;;;;;8.99;100.00;101436.69;4990099;28;20505;-72
2023/10/25 01:06:54;;;;;;;9.10;5.53;;;;;;;9.17;100.00;101447.16;5010143;28;20443;-73
2023/10/25 01:09:20;;;;;;;10.37;5.90;;;;;;;8.70;100.00;101386.47;4995034;28;20456;-74
2023/10/25 01:11:45;;;;;;;13.53;7.00;;;;;;;8.97;100.00;101425.34;4997011;28;20177;-73
2023/10/25 01:14:11;;;;;;;12.50;6.37;;;;;;;8.66;100.00;101393.19;5000153;28;20219;-72
2023/10/25 01:16:36;;;;;;;8.37;5.50;;;;;;;9.02;100.00;101436.31;4997312;28;20663;-73
2023/10/25 01:19:02;;;;;;;10.23;5.20;;;;;;;8.89;100.00;101435.25;4999403;28;20844;-72
2023/10/25 01:21:28;;;;;;;12.37;5.70;;;;;;;8.90;100.00;101444.91;5000133;28;20224;-72
2023/10/25 01:23:53;;;;;;;11.83;5.20;;;;;;;8.47;100.00;101367.66;5000612;28;20825;-73
2023/10/25 01:26:19;;;;;;;12.60;6.40;;;;;;;8.49;100.00;101363.00;4998829;28;20204;-72
2023/10/25 01:28:44;;;;;;;9.50;5.20;;;;;;;8.90;100.00;101436.91;4991209;28;20607;-72
2023/10/25 01:31:09;;;;;;;9.70;4.93;;;;;;;8.53;100.00;101376.84;4994087;28;20300;-73
2023/10/25 01:33:35;;;;;;;7.83;4.97;;;;;;;8.69;100.00;101392.84;4994383;28;20196;-72
2023/10/25 01:36:00;;;;;;;10.60;4.97;;;;;;;8.80;100.00;101421.06;4994179;28;20189;-73
2023/10/25 01:38:26;;;;;;;8.83;5.07;;;;;;;8.86;100.00;101435.59;5000094;28;20655;-73
2023/10/25 01:40:51;;;;;;;8.67;4.80;;;;;;;8.43;100.00;101377.03;4990118;28;20279;-72
2023/10/25 01:43:17;;;;;;;10.57;5.80;;;;;;;8.73;100.00;101422.75;4996161;28;20274;-73
2023/10/25 01:45:42;;;;;;;9.23;5.30;;;;;;;8.70;100.00;101423.09;4999285;28;20334;-72
2023/10/25 01:48:08;;;;;;;10.90;4.87;;;;;;;8.22;100.00;101344.69;4998603;28;20197;-72
2023/10/25 01:50:34;;;;;;;10.40;5.37;;;;;;;8.65;100.00;101418.28;4990809;28;20292;-72
2023/10/25 01:52:59;;;;;;;14.90;5.70;;;;;;;8.52;100.00;101388.56;4998841;28;20944;-72
2023/10/25 01:55:25;;;;;;;9.00;4.63;;;;;;;8.63;100.00;101411.41;4998112;28;20194;-72
2023/10/25 01:57:51;;;;;;;10.63;4.83;;;;;;;8.43;100.00;101385.06;4996797;28;20798;-72
2023/10/25 02:00:17;;;;;;;10.50;4.50;;;;;;;8.21;100.00;101343.81;4998066;28;20267;-74
2023/10/25 02:02:42;;;;;;;10.17;5.40;;;;;;;8.53;100.00;101399.09;4992257;28;20433;-72
2023/10/25 02:05:08;;;;;;;11.57;5.23;;;;;;;8.20;100.00;101357.38;4996249;28;20950;-72
2023/10/25 02:07:34;;;;;;;8.20;4.40;;;;;;;8.66;100.00;101417.25;4994668;28;20194;-73
2023/10/25 02:10:00;;;;;;;7.77;4.50;;;;;;;8.48;100.00;101395.25;5003825;28;20259;-72
2023/10/25 02:12:25;;;;;;;10.77;5.23;;;;;;;8.57;100.00;101415.63;4992134;28;20448;-72
2023/10/25 02:14:51;;;;;;;12.73;5.67;;;;;;;8.45;100.00;101383.06;4987300;28;20190;-73
2023/10/25 02:17:17;;;;;;;10.03;4.70;;;;;;;8.54;100.00;101408.78;4989404;28;20193;-72
2023/10/25 02:19:45;;;;;;;10.00;5.07;;;;;;;8.63;100.00;101406.06;4994825;28;20708;-72
2023/10/25 02:22:10;;;;;;;7.40;4.47;;;;;;;8.68;100.00;101401.88;4991508;28;20432;-72
2023/10/25 02:24:36;;;;;;;8.80;5.10;;;;;;;8.69;100.00;101398.19;4991239;28;20437;-73
2023/10/25 02:27:01;;;;;;;7.80;4.13;;;;;;;8.58;100.00;101374.50;4995422;28;20221;-72
2023/10/25 02:29:27;;;;;;;6.73;4.43;;;;;;;8.34;100.00;101336.09;4994382;28;20205;-72
2023/10/25 02:31:52;;;;;;;8.17;4.60;;;;;;;8.19;100.00;101303.09;4994773;28;20204;-72
2023/10/25 02:34:18;;;;;;;6.30;4.30;;;;;;;8.65;100.00;101374.63;5000612;28;20252;-73
2023/10/25 02:36:43;;;;;;;12.73;4.47;;;;;;;8.57;100.00;101354.94;4991625;28;20273;-72
2023/10/25 02:39:10;;;;;;;7.10;4.67;;;;;;;8.63;100.00;101371.31;4995723;28;20296;-72
2023/10/25 02:41:35;;;;;;;7.83;3.90;;;;;;;8.34;100.00;101335.28;4996869;28;20247;-73
2023/10/25 02:44:01;;;;;;;11.93;4.33;;;;;;;8.22;100.00;101302.75;5000371;28;20428;-72
2023/10/25 02:46:26;;;;;;;9.43;4.43;;;;;;;8.62;100.00;101370.47;4990530;28;20189;-72
2023/10/25 02:48:52;;;;;;;9.90;4.70;;;;;;;8.55;100.00;101335.56;4997300;28;20876;-73
2023/10/25 02:51:18;;;;;;;9.13;4.63;;;;;;;8.54;100.00;101365.16;5006634;28;20212;-73
2023/10/25 02:53:43;;;;;;;9.10;5.07;;;;;;;8.18;100.00;101313.94;4996378;28;20182;-73
2023/10/25 02:56:27;;;;;;;9.90;4.53;;;;;;;8.52;100.00;101364.50;4990523;28;20692;-74
2023/10/25 02:58:53;;;;;;;7.67;4.37;;;;;;;8.00;100.00;101290.13;4993163;28;20264;-72
2023/10/25 03:01:23;;;;;;;11.73;5.00;;;;;;;8.34;100.00;101341.47;4994951;28;20472;-73
2023/10/25 03:03:48;;;;;;;9.93;5.00;;;;;;;8.20;100.00;101341.34;5005426;28;20189;-72
2023/10/25 03:06:14;;;;;;;8.47;4.87;;;;;;;8.15;100.00;101328.47;5001608;28;20520;-72
2023/10/25 03:08:39;;;;;;;10.93;4.80;;;;;;;8.19;100.00;101345.00;4990613;28;20798;-73
2023/10/25 03:11:04;;;;;;;12.00;5.37;;;;;;;7.86;100.00;101295.13;4999489;28;20190;-72
2023/10/25 03:13:31;;;;;;;10.60;5.27;;;;;;;8.29;100.00;101356.34;4996876;28;20243;-72
2023/10/25 03:15:57;;;;;;;7.47;4.90;;;;;;;8.33;100.00;101379.88;4988753;28;20185;-73
2023/10/25 03:18:23;;;;;;;10.63;5.03;;;;;;;8.15;100.00;101349.84;4990621;28;20452;-73
2023/10/25 03:20:48;;;;;;;8.30;5.00;;;;;;;8.18;100.00;101364.72;4992680;28;20495;-72
2023/10/25 03:23:14;;;;;;;10.70;5.67;;;;;;;8.11;100.00;101329.81;4992144;28;20251;-72
2023/10/25 03:25:39;;;;;;;11.33;5.97;;;;;;;7.90;100.00;101315.19;4996094;28;20186;-73
2023/10/25 03:28:04;;;;;;;8.70;4.97;;;;;;;7.95;100.00;101308.47;5004760;28;20185;-74
2023/10/25 03:30:30;;;;;;;12.87;6.73;;;;;;;8.09;100.00;101337.19;4997487;28;20205;-73
2023/10/25 03:32:55;;;;;;;9.90;6.27;;;;;;;8.36;100.00;101379.56;4996230;28;20251;-72
2023/10/25 03:35:21;;;;;;;11.27;6.40;;;;;;;8.18;100.00;101356.69;5002426;28;20739;-72
2023/10/25 03:37:46;;;;;;;14.93;7.50;;;;;;;7.91;100.00;101305.31;4995317;28;20184;-72
2023/10/25 03:40:12;;;;;;;11.17;6.00;;;;;;;8.12;100.00;101364.38;4999461;28;20218;-73
2023/10/25 03:42:37;;;;;;;13.43;7.03;;;;;;;8.18;100.00;101360.19;4995669;28;20185;-73
2023/10/25 03:45:06;;;;;;;13.10;6.87;;;;;;;8.32;100.00;101382.72;5000296;28;20755;-72
2023/10/25 03:47:34;;;;;;;12.03;7.57;;;;;;;8.32;100.00;101391.56;5003522;28;20196;-72
2023/10/25 03:50:01;;;;;;;15.50;7.60;;;;;;;8.32;100.00;101377.38;5001627;28;20452;-72
2023/10/25 03:52:28;;;;;;;10.93;6.77;;;;;;;8.01;100.00;101335.34;5000949;28;20451;-72
2023/10/25 03:54:53;;;;;;;11.77;6.33;;;;;;;8.42;100.00;101386.09;5006334;28;20482;-72
2023/10/25 03:57:19;;;;;;;12.30;6.63;;;;;;;8.19;100.00;101358.34;5000488;28;20444;-73
2023/10/25 03:59:44;;;;;;;14.17;7.97;;;;;;;8.37;100.00;101394.56;5006942;28;20570;-73
2023/10/25 04:02:09;;;;;;;10.50;6.83;;;;;;;8.38;100.00;101395.41;5002726;28;20217;-72
2023/10/25 04:04:35;;;;;;;16.57;7.70;;;;;;;8.02;100.00;101354.91;5003510;28;20570;-73
2023/10/25 04:07:00;;;;;;;10.57;6.67;;;;;;;7.88;100.00;101322.53;5003665;28;20193;-73
2023/10/25 04:09:26;;;;;;;11.90;6.90;;;;;;;7.97;100.00;101339.38;5003576;28;20201;-72
2023/10/25 04:11:51;;;;;;;12.27;7.00;;;;;;;8.09;100.00;101374.56;5002764;28;20648;-73
2023/10/25 04:14:17;;;;;;;11.80;6.70;;;;;;;8.27;100.00;101393.91;5001162;28;20223;-72
2023/10/25 04:16:42;;;;;;;12.50;6.97;;;;;;;7.81;100.00;101337.56;4994929;28;20714;-73
2023/10/25 04:19:07;;;;;;;15.63;7.07;;;;;;;7.93;100.00;101362.91;4996683;28;20245;-72
2023/10/25 04:21:33;;;;;;;14.60;7.10;;;;;;;8.24;100.00;101406.78;4998308;28;20219;-73
2023/10/25 04:23:58;;;;;;;14.67;7.77;;;;;;;8.26;100.00;101388.75;5001957;28;20677;-72
2023/10/25 04:26:24;;;;;;;13.13;7.30;;;;;;;8.21;100.00;101378.56;4995579;28;20280;-72
2023/10/25 04:28:49;;;;;;;11.80;7.00;;;;;;;7.85;100.00;101335.38;5000780;28;20205;-73
2023/10/25 04:31:16;;;;;;;12.50;7.47;;;;;;;7.91;100.00;101342.72;4993133;28;20593;-72
2023/10/25 04:33:41;;;;;;;12.97;7.07;;;;;;;8.25;100.00;101385.25;4996846;28;20189;-72
2023/10/25 04:36:08;;;;;;;13.20;7.20;;;;;;;8.31;100.00;101402.44;5004333;28;20839;-72
2023/10/25 04:38:33;;;;;;;14.77;7.07;;;;;;;8.03;100.00;101369.91;4999738;28;20189;-73
2023/10/25 04:40:59;;;;;;;10.03;7.03;;;;;;;8.24;100.00;101407.63;5003775;28;20478;-72
2023/10/25 04:43:25;;;;;;;11.40;7.20;;;;;;;7.75;100.00;101311.50;4997829;28;20562;-72
2023/10/25 04:45:53;;;;;;;14.97;7.87;;;;;;;8.22;100.00;101395.44;4993536;28;21010;-73
2023/10/25 04:48:18;;;;;;;12.63;6.80;;;;;;;8.25;100.00;101395.94;4997198;28;20193;-72
2023/10/25 04:50:44;;;;;;;12.33;7.50;;;;;;;8.25;100.00;101395.09;4994843;28;20499;-73
2023/10/25 04:53:09;;;;;;;15.43;8.17;;;;;;;8.22;100.00;101396.28;5001641;28;20193;-73
2023/10/25 04:55:36;;;;;;;15.00;7.20;;;;;;;7.89;100.00;101350.88;4996737;28;20279;-72
2023/10/25 04:58:02;;;;;;;14.80;7.00;;;;;;;7.87;100.00;101336.06;5000028;28;20185;-72
2023/10/25 05:00:28;;;;;;;10.73;5.90;;;;;;;8.09;100.00;101377.25;4996574;28;20479;-72
2023/10/25 05:02:54;;;;;;;15.23;6.13;;;;;;;8.39;100.00;101405.13;5000096;28;20432;-72
2023/10/25 05:05:20;;;;;;;8.57;5.60;;;;;;;8.23;100.00;101399.78;4995633;28;20200;-72
2023/10/25 05:07:46;;;;;;;10.23;6.63;;;;;;;7.88;100.00;101351.06;5005486;28;20428;-74
2023/10/25 05:10:12;;;;;;;8.70;5.30;;;;;;;8.15;100.00;101377.41;5000509;28;20587;-72
2023/10/25 05:12:42;;;;;;;8.63;5.40;;;;;;;8.23;100.00;101408.63;4995480;28;20510;-72
2023/10/25 05:15:09;;;;;;;9.97;6.40;;;;;;;8.26;100.00;101407.47;4997206;28;20449;-73
2023/10/25 05:17:35;;;;;;;10.90;5.50;;;;;;;8.13;100.00;101390.13;4993191;28;20440;-72
2023/10/25 05:20:04;;;;;;;12.27;6.27;;;;;;;7.71;100.00;101315.53;4993832;28;20492;-72
2023/10/25 05:22:35;;;;;;;9.23;5.63;;;;;;;8.24;100.00;101410.28;4994432;28;20445;-73
2023/10/25 05:25:05;;;;;;;10.37;5.43;;;;;;;8.12;100.00;101388.44;4990964;28;20536;-72
2023/10/25 05:27:35;;;;;;;12.47;5.87;;;;;;;8.18;100.00;101404.78;4989784;28;20476;-72
2023/10/25 05:30:05;;;;;;;11.63;5.90;;;;;;;8.12;100.00;101407.13;4996187;28;20455;-72
2023/10/25 05:35:52;;;;;;;10.37;5.30;;;;;;;7.84;100.00;101393.31;4986408;28;21053;-73
2023/10/25 05:38:18;;;;;;;7.87;4.97;;;;;;;8.06;100.00;101407.81;4992198;28;20514;-73
2023/10/25 05:40:47;;;;;;;8.50;5.27;;;;;;;8.06;100.00;101420.34;4990916;28;20221;-72
2023/10/25 05:43:15;;;;;;;8.33;5.40;;;;;;;7.81;100.00;101387.44;4994027;28;20194;-72
2023/10/25 05:45:42;;;;;;;16.10;6.60;;;;;;;7.84;100.00;101397.78;4987332;28;20525;-73
2023/10/25 05:48:10;;;;;;;11.53;6.03;;;;;;;7.86;100.00;101417.16;4996439;28;20432;-72
2023/10/25 05:50:36;;;;;;;8.77;4.70;;;;;;;7.95;100.00;101431.34;4990744;28;20456;-72
2023/10/25 05:53:02;;;;;;;6.43;4.60;;;;;;;7.98;100.00;101433.69;4994190;28;20439;-72
2023/10/25 05:55:28;;;;;;;10.03;4.83;;;;;;;7.62;100.00;101377.94;4997063;28;20878;-72
2023/10/25 05:58:40;;;;;;;9.73;4.77;;;;;;;7.91;100.00;101437.03;4999870;28;20190;-73
2023/10/25 06:01:09;;;;;;;10.23;5.10;;;;;;;7.78;100.00;101412.69;4992733;28;20563;-72
2023/10/25 06:03:35;;;;;;;11.13;4.50;;;;;;;7.92;100.00;101436.03;4988303;28;20440;-73
2023/10/25 06:06:01;;;;;;;12.33;5.20;;;;;;;8.03;100.00;101445.56;4996989;28;20485;-73
2023/10/25 06:08:28;;;;;;;10.60;4.47;;;;;;;7.98;100.00;101447.03;4994352;28;20817;-73
2023/10/25 06:10:54;;;;;;;11.10;4.50;;;;;;;7.86;100.00;101431.34;4997301;28;20437;-73
2023/10/25 06:13:20;;;;;;;6.37;4.30;;;;;;;7.88;100.00;101440.03;4999915;28;20444;-73
2023/10/25 06:15:45;;;;;;;7.63;4.40;;;;;;;7.87;100.00;101430.38;4992374;28;20479;-73
2023/10/25 06:18:12;;;;;;;8.30;4.70;;;;;;;7.81;100.00;101425.69;4995798;28;20746;-72
2023/10/25 06:20:37;;;;;;;9.67;4.70;;;;;;;7.56;100.00;101410.66;4998362;28;20304;-74
2023/10/25 06:23:03;;;;;;;7.40;4.57;;;;;;;7.65;100.00;101409.66;4997760;28;20506;-73
2023/10/25 06:25:31;;;;;;;10.43;4.40;;;;;;;7.27;100.00;101371.91;4997535;28;20196;-73
2023/10/25 06:27:59;;;;;;;7.60;4.43;;;;;;;7.05;100.00;101346.66;4999515;28;20752;-73
2023/10/25 06:30:26;;;;;;;6.93;4.50;;;;;;;7.10;100.00;101338.19;4999540;28;20451;-73
2023/10/25 06:32:52;;;;;;;6.23;3.80;;;;;;;7.61;100.00;101429.69;4993974;28;20447;-72
2023/10/25 06:35:17;;;;;;;7.63;4.50;;;;;;;7.70;100.00;101431.34;5002117;28;20432;-73
2023/10/25 06:37:43;;;;;;;10.90;4.50;;;;;;;7.56;100.00;101429.34;4995253;28;20747;-73
2023/10/25 06:40:09;;;;;;;7.70;4.00;;;;;;;7.49;100.00;101405.13;4987137;28;20221;-73
2023/10/25 06:42:35;;;;;;;7.17;3.63;;;;;;;7.50;100.00;101420.16;4998739;28;20246;-74
2023/10/25 06:45:01;;;;;;;7.13;3.80;;;;;;;7.72;100.00;101429.34;5001100;28;20196;-74
2023/10/25 06:47:28;;;;;;;10.33;4.80;;;;;;;7.05;100.00;101367.19;4996028;28;20223;-73
2023/10/25 06:49:54;;;;;;;8.97;5.53;;;;;;;7.27;100.00;101390.56;4996455;28;20886;-73
2023/10/25 06:52:19;;;;;;;7.60;3.97;;;;;;;7.57;100.00;101423.81;5006763;28;20462;-73
2023/10/25 06:54:45;;;;;;;8.40;4.60;;;;;;;7.61;100.00;101430.50;4994212;28;20467;-74
2023/10/25 06:57:11;;;;;;;6.50;3.77;;;;;;;7.64;100.00;101429.34;4996971;28;20209;-73
2023/10/25 06:59:37;;;;;;;6.03;3.80;;;;;;;7.64;100.00;101427.50;4995470;28;20205;-73
2023/10/25 07:02:43;;;;;;;6.93;3.43;;;;;;;7.65;100.00;101421.16;4996667;28;20479;-74
2023/10/25 07:05:13;;;;;;;5.70;3.23;;;;;;;7.53;100.00;101378.94;4993662;28;20518;-73
2023/10/25 07:07:40;;;;;;;7.97;4.00;;;;;;;7.88;100.00;101431.19;4997594;28;20774;-73
2023/10/25 07:10:09;;;;;;;7.70;4.30;;;;;;;7.72;100.00;101429.34;4995626;28;20510;-73
2023/10/25 07:12:34;;;;;;;6.70;3.93;;;;;;;7.80;100.00;101434.69;4993361;28;20472;-73
2023/10/25 07:15:00;;;;;;;6.70;4.00;;;;;;;7.30;100.00;101363.56;4998506;28;20467;-73
2023/10/25 07:17:29;;;;;;;10.73;4.40;;;;;;;7.84;100.00;101438.72;4992362;28;20192;-75
2023/10/25 07:19:56;;;;;;;6.40;3.57;;;;;;;7.59;100.00;101386.28;4996023;28;20222;-73
2023/10/25 07:22:21;;;;;;;7.90;4.00;;;;;;;7.99;100.00;101435.38;4996152;28;20444;-73
2023/10/25 07:24:46;;;;;;;6.70;3.70;;;;;;;7.42;100.00;101340.88;5000811;28;20436;-73
2023/10/25 07:27:12;;;;;;;4.80;3.27;;;;;;;7.98;100.00;101415.00;5007065;28;20188;-73
2023/10/25 07:29:39;;;;;;;6.93;4.10;;;;;;;7.99;100.00;101406.00;5003281;28;20742;-73
2023/10/25 07:32:05;;;;;;;5.90;3.23;;;;;;;8.00;100.00;101411.16;5001844;28;20562;-75
2023/10/25 07:34:30;;;;;;;11.30;3.83;;;;;;;7.93;100.00;101391.47;5003380;28;20498;-75
2023/10/25 07:36:55;;;;;;;8.50;3.80;;;;;;;8.39;100.00;101442.56;5000060;28;20519;-74
2023/10/25 07:39:21;;;;;;;9.73;3.37;;;;;;;8.37;100.00;101434.66;5002120;28;20217;-73
2023/10/25 07:41:47;;;;;;;6.57;3.20;;;;;;;8.17;100.00;101384.44;4999526;28;20212;-73
2023/10/25 07:44:13;;;;;;;7.23;3.60;;;;;;;8.30;100.00;101390.94;4999131;28;20228;-73
2023/10/25 07:46:38;;;;;;;13.20;4.37;;;;;;;8.27;100.00;101366.34;5000343;28;20190;-74
2023/10/25 07:49:03;;;;;;;5.00;2.90;;;;;;;8.06;100.00;101332.16;4998020;28;20693;-73
2023/10/25 07:51:29;;;;;;;8.23;3.27;;;;;;;8.55;100.00;101409.59;4999801;28;20187;-73
2023/10/25 07:53:55;;;;;;;9.90;3.30;;;;;;;8.51;100.00;101409.13;5002407;28;20204;-73
2023/10/25 07:56:20;;;;;;;7.23;3.90;;;;;;;8.23;100.00;101351.69;4999411;28;20189;-73
2023/10/25 07:58:46;;;;;;;6.60;3.40;;;;;;;8.61;100.00;101400.88;4997124;28;20185;-73
2023/10/25 08:01:14;;;;;;;9.67;4.07;;;;;;;8.27;100.00;101340.47;4997625;28;20201;-73
2023/10/25 08:03:39;;;;;;;8.47;3.93;;;;;;;8.36;100.00;101350.16;5000408;28;20272;-75
2023/10/25 08:06:05;;;;;;;7.93;3.60;;;;;;;8.25;100.00;101309.59;4998698;28;20516;-73
2023/10/25 08:08:34;;;;;;;13.73;4.00;;;;;;;8.81;100.00;101390.63;5001694;28;20199;-74
2023/10/25 08:11:04;;;;;;;7.03;3.70;;;;;;;8.37;100.00;101318.91;5003881;28;20775;-73
2023/10/25 08:13:30;;;;;;;9.30;4.20;;;;;;;8.71;100.00;101382.81;5001451;28;20429;-74
2023/10/25 08:15:57;;;;;;;7.77;3.77;;;;;;;8.73;100.00;101393.31;4995938;28;21307;-74
2023/10/25 08:18:22;;;;;;;10.23;4.00;;;;;;;8.87;100.00;101394.44;4998300;28;20482;-73
2023/10/25 08:20:48;;;;;;;8.17;4.30;;;;;;;8.62;100.00;101358.94;4997572;28;20460;-73
2023/10/25 08:23:13;;;;;;;10.53;3.93;;;;;;;8.76;100.00;101366.22;5003862;28;20252;-73
2023/10/25 08:25:39;;;;;;;8.63;4.43;;;;;;;8.45;100.00;101286.81;5001349;28;20185;-73
2023/10/25 08:28:04;;;;;;;7.50;4.23;;;;;;;8.82;100.00;101339.63;5002579;28;20196;-73
2023/10/25 08:30:30;;;;;;;8.57;4.60;;;;;;;9.02;100.00;101357.91;5001768;28;20228;-74
2023/10/25 08:32:55;;;;;;;7.53;4.53;;;;;;;9.09;100.00;101366.91;5005653;28;20185;-73
2023/10/25 08:35:20;;;;;;;11.30;3.93;;;;;;;9.02;100.00;101334.66;4998973;28;20280;-73
2023/10/25 08:37:46;;;;;;;8.07;3.97;;;;;;;9.20;100.00;101366.50;4997439;28;20193;-73
2023/10/25 08:40:12;;;;;;;9.23;5.20;;;;;;;8.81;100.00;101288.97;5003662;28;20704;-73
2023/10/25 08:42:37;;;;;;;7.40;4.67;;;;;;;9.01;100.00;101310.75;4999682;28;20238;-75
2023/10/25 08:45:06;;;;;;;9.67;4.47;;;;;;;9.30;100.00;101326.13;5003905;28;20801;-73
2023/10/25 08:47:32;;;;;;;9.80;4.70;;;;;;;9.02;100.00;101258.91;5006227;28;20173;-74
2023/10/25 08:50:31;;;;;;;10.13;5.37;;;;;;;9.44;100.00;101301.25;5008446;28;20435;-74
2023/10/25 08:52:58;;;;;;;6.90;4.40;;;;;;;9.58;100.00;101285.41;4996245;28;20251;-73
2023/10/25 08:55:23;;;;;;;8.97;4.53;;;;;;;9.58;100.00;101269.34;4999243;28;20440;-73
2023/10/25 08:57:54;;;;;;;8.60;4.70;;;;;;;9.41;100.00;101226.63;4989417;28;20424;-73
2023/10/25 09:00:20;;;;;;;9.27;4.93;;;;;;;9.62;100.00;101225.09;4999962;28;20208;-73
2023/10/25 09:02:46;;;;;;;6.67;4.60;;;;;;;9.12;100.00;101123.03;4999614;28;20547;-73
2023/10/25 09:05:12;;;;;;;8.40;5.30;;;;;;;9.38;100.00;101148.53;5001533;28;20428;-73
2023/10/25 09:07:37;;;;;;;7.30;4.70;;;;;;;9.76;100.00;101169.88;5000878;28;20433;-75
2023/10/25 09:10:23;;;;;;;10.33;4.80;;;;;;;9.43;100.00;101105.94;4997309;28;20205;-73
2023/10/25 09:12:50;;;;;;;8.27;4.33;;;;;;;9.80;100.00;101129.13;4996750;28;20216;-74
2023/10/25 09:15:28;;;;;;;8.70;5.20;;;;;;;9.67;100.00;101099.50;5007699;28;20494;-73
2023/10/25 09:17:55;;;;;;;7.50;4.80;;;;;;;9.76;100.00;101095.69;5003965;28;20431;-73
2023/10/25 09:20:27;;;;;;;9.73;5.33;;;;;;;9.74;100.00;101071.75;5000759;28;20498;-74
2023/10/25 09:22:53;;;;;;;8.40;4.90;;;;;;;9.95;100.00;101079.03;5004537;28;20436;-73
2023/10/25 09:25:28;;;;;;;7.57;4.40;;;;;;;10.02;100.00;101049.63;5005202;28;20423;-73
2023/10/25 09:27:54;;;;;;;7.37;4.43;;;;;;;10.08;100.00;101027.41;4999801;28;20450;-73
2023/10/25 09:30:20;;;;;;;6.80;4.10;;;;;;;9.72;100.00;100961.31;5007089;28;20448;-73
2023/10/25 09:32:45;;;;;;;11.07;5.30;;;;;;;10.11;100.00;101012.81;4996875;28;20180;-74
2023/10/25 09:35:11;;;;;;;9.50;4.80;;;;;;;9.88;100.00;100987.00;5002139;28;20207;-74
2023/10/25 09:37:36;;;;;;;7.93;4.37;;;;;;;10.11;100.00;100975.28;5000016;28;20178;-74
2023/10/25 09:40:02;;;;;;;8.10;4.60;;;;;;;9.98;100.00;100943.84;5007391;28;20702;-73
2023/10/25 09:42:29;;;;;;;9.27;4.57;;;;;;;10.19;100.00;100991.25;4995563;28;20721;-75
2023/10/25 09:45:01;;;;;;;8.23;4.67;;;;;;;10.27;100.00;100987.59;5004361;28;20204;-73
2023/10/25 09:47:32;;;;;;;10.80;5.53;;;;;;;9.90;100.00;100935.94;5000346;28;20515;-73
2023/10/25 09:50:22;;;;;;;11.13;5.17;;;;;;;10.15;100.00;100974.72;4999758;28;20445;-74
2023/10/25 09:52:52;;;;;;;7.30;4.67;;;;;;;9.81;100.00;100870.94;4999435;28;20531;-73
2023/10/25 09:55:22;;;;;;;10.07;5.03;;;;;;;10.27;100.00;100969.69;4994091;28;20818;-74
2023/10/25 09:57:49;;;;;;;15.23;5.77;;;;;;;10.22;100.00;100955.19;4993292;28;21314;-73
2023/10/25 10:00:15;;;;;;;8.03;5.20;;;;;;;9.95;100.00;100912.06;4996954;28;21179;-73
2023/10/25 10:03:09;;;;;;;10.83;5.93;;;;;;;10.28;100.00;100949.06;4997904;28;20952;-73
2023/10/25 10:05:49;;;;;;;8.50;5.67;;;;;;;9.97;100.00;100904.66;4997972;23;20515;-73
2023/10/25 10:08:19;;;;;;;9.80;4.70;;;;;;;10.42;100.00;100937.44;4981803;28;20537;-73
2023/10/25 10:11:00;;;;;;;12.50;5.30;;;;;;;10.28;100.00;100930.31;4984643;28;20486;-73
2023/10/25 10:13:26;;;;;;;10.53;5.00;;;;;;;10.43;100.00;100906.91;4973827;28;20462;-73
2023/10/25 10:16:05;;;;;;;9.50;4.57;;;;;;;10.73;100.00;100915.56;4983231;28;20444;-73
2023/10/25 10:18:34;;;;;;;8.30;5.37;;;;;;;10.69;100.00;100871.34;4975811;28;20501;-72
2023/10/25 10:21:01;;;;;;;10.10;4.50;;;;;;;10.67;100.00;100867.22;4975894;28;20491;-73
2023/10/25 10:23:39;;;;;;;9.40;5.60;;;;;;;10.46;100.00;100839.47;4981291;28;20795;-72
2023/10/25 10:26:06;;;;;;;7.90;4.60;;;;;;;10.64;100.00;100806.75;4983684;28;20431;-73
2023/10/25 10:28:47;;;;;;;6.67;4.23;;;;;;;11.11;100.00;100833.72;4980678;28;20476;-73
2023/10/25 10:31:13;;;;;;;7.27;4.57;;;;;;;10.73;100.00;100743.88;4981960;28;20451;-72
2023/10/25 10:33:49;;;;;;;13.07;5.80;;;;;;;11.22;100.00;100807.13;4979615;28;20433;-72
2023/10/25 10:37:01;;;;;;;9.53;5.77;;;;;;;11.53;100.00;100819.16;4981404;28;20429;-73
2023/10/25 10:39:26;;;;;;;7.70;4.40;;;;;;;12.01;100.00;100821.66;4980732;28;20488;-73
2023/10/25 10:42:00;;;;;;;8.20;4.63;;;;;;;12.39;100.00;100794.91;4977678;28;20422;-73
2023/10/25 10:44:26;;;;;;;10.20;4.97;;;;;;;12.50;100.00;100787.19;4985154;28;20185;-73
2023/10/25 10:46:56;;;;;;;9.93;5.43;;;;;;;12.00;100.00;100768.91;4981848;28;20589;-72
2023/10/25 10:49:22;;;;;;;6.03;3.97;;;;;;;12.55;100.00;100736.28;4982376;28;20548;-73
2023/10/25 10:51:49;;;;;;;6.37;4.20;;;;;;;12.62;100.00;100680.56;4981492;28;20430;-73
2023/10/25 10:54:14;;;;;;;8.33;5.00;;;;;;;13.28;100.00;100731.31;4984449;28;20440;-73
2023/10/25 10:56:40;;;;;;;5.87;3.70;;;;;;;13.34;100.00;100676.53;4980183;28;21182;-73
2023/10/25 10:59:06;;;;;;;7.20;3.70;;;;;;;13.62;100.00;100687.88;4975621;28;20214;-73
2023/10/25 11:01:32;;;;;;;8.10;3.80;;;;;;;13.66;100.00;100656.78;4985032;28;20204;-73
2023/10/25 11:03:58;;;;;;;7.23;3.53;;;;;;;13.75;100.00;100631.97;4986671;28;20491;-73
2023/10/25 11:06:24;;;;;;;5.47;3.43;;;;;;;13.49;100.00;100554.94;4983170;28;20937;-73
2023/10/25 11:08:51;;;;;;;6.27;3.07;;;;;;;14.14;100.00;100589.38;4976874;28;21195;-73
2023/10/25 11:11:20;;;;;;;5.10;3.47;;;;;;;14.17;100.00;100574.63;4981207;28;20425;-73
2023/10/25 11:13:48;;;;;;;7.30;3.50;;;;;;;13.83;100.00;100552.69;4980502;28;20409;-73
2023/10/25 11:16:14;;;;;;;6.50;3.07;;;;;;;13.48;100.00;100534.44;4981493;28;20429;-73
2023/10/25 11:18:39;;;;;;;5.83;3.40;;;;;;;12.85;100.00;100448.53;4981712;28;20465;-73
2023/10/25 11:21:04;;;;;;;5.30;2.83;;;;;;;13.20;100.00;100528.72;4980542;28;20261;-73
2023/10/25 11:23:30;;;;;;;6.70;2.97;;;;;;;13.24;100.00;100506.50;4976995;28;20194;-73